Tuesday, February 20, 2018, 4:25 AM EST
Back to Local

KSBY, Salisbury-wicomico Cty Reg

Location: Salisbury, MD, United States Lat: 38.333
Local Time: 4:25 AM EST ( 9:25 GMT) Lon: -75.5
Time Zone: US/Eastern Elev: 52 ft

Show me the last for .
Show Coded

Time T Td Feel RH Dir Speed Gust Alt SLP Vis Weather Sky Remarks
2018-02-20 03:54 58 58 - 100 220° 10 - 30.37 30.37 2 BR OVC003 None
2018-02-20 03:34 58 57 - 96 210° 10 - 30.37 - 2 BR OVC003 None
2018-02-20 02:54 58 58 - 100 230° 9 - 30.37 30.37 1 BR OVC003 None
2018-02-20 02:45 58 58 - 100 230° 9 - 30.37 - 2 BR OVC003 None
2018-02-20 02:23 58 57 - 96 220° 9 - 30.37 - 4 BR OVC004 None
2018-02-20 01:54 58 58 - 100 220° 9 - 30.37 30.38 7 OVC005 None
2018-02-20 00:54 58 57 - 96 210° 9 - 30.37 30.37 10 BKN006 OVC009 6-hr Min Temp (1am): 55.9°F
6-hr Max Temp (1am): 57.9°F
2018-02-20 00:35 58 57 - 96 210° 8 - 30.37 - 10 BKN011 OVC019 None
2018-02-20 00:08 58 57 - 96 210° 8 - 30.38 - 10 OVC009 None
2018-02-19 23:54 57 56 - 96 210° 7 - 30.38 30.39 10 OVC011 24-hr Min Temp (12am): 28.9°F
24-hr Max Temp (12am): 57.9°F
2018-02-19 22:54 57 56 - 96 210° 7 - 30.39 30.39 10 OVC013 None
2018-02-19 22:01 57 56 - 96 220° 7 - 30.38 - 10 FEW006 OVC017 None
2018-02-19 21:54 57 56 - 96 210° 9 - 30.39 30.39 10 OVC003 None
2018-02-19 21:24 56 56 - 100 210° 8 - 30.39 - 9 OVC003 None
2018-02-19 20:54 56 56 - 100 190° 8 - 30.38 30.39 8 OVC005 None
2018-02-19 19:54 56 55 - 96 190° 8 - 30.38 30.38 10 OVC005 None
2018-02-19 18:54 56 56 - 100 190° 9 - 30.38 30.39 10 OVC006 6-hr Min Temp (7pm): 55.0°F
6-hr Max Temp (7pm): 57.9°F
2018-02-19 17:54 56 55 - 96 190° 10 - 30.37 30.38 9 OVC007 None
2018-02-19 17:27 56 55 - 96 180° 10 - 30.37 - 2 BR OVC008 None
2018-02-19 16:54 56 55 - 96 180° 10 - 30.37 30.38 4 BR OVC009 None
2018-02-19 16:03 56 54 - 93 170° 9 - 30.38 - 4 BR BKN009 BKN013 OVC022 None
2018-02-19 15:54 55 54 - 96 170° 8 - 30.38 30.38 3 BR BKN012 OVC022 None
2018-02-19 15:51 55 54 - 93 180° 12 - 30.38 - 4 BR BKN012 OVC022 None
2018-02-19 15:42 55 54 - 96 180° 12 - 30.38 - 3 BR BKN009 BKN015 OVC022 None
2018-02-19 15:25 56 53 - 90 170° 8 - 30.39 - 5 BR BKN014 OVC025 None
2018-02-19 14:54 57 52 - 83 200° 13 - 30.39 30.40 10 OVC020 None
2018-02-19 14:26 58 51 - 77 190° 10 - 30.39 - 10 OVC020 None
2018-02-19 13:54 57 51 - 80 190° 12 - 30.40 30.40 10 OVC035 None
2018-02-19 12:54 55 49 - 79 170° 10 - 30.42 30.43 10 OVC042 6-hr Min Temp (1pm): 30.0°F
6-hr Max Temp (1pm): 55.0°F
2018-02-19 11:54 53 47 - 79 160° 7 - 30.46 30.47 10 OVC046 None
2018-02-19 10:54 50 45 47 82 160° 7 - 30.48 30.49 10 SCT036 BKN046 OVC055 None
2018-02-19 09:54 46 42 43 85 150° 6 - 30.49 30.50 10 BKN065 OVC090 None
2018-02-19 08:54 40 39 36 96 100° 6 - 30.49 30.50 10 BKN100 BKN120 None
2018-02-19 07:54 35 34 31 95 110° 5 - 30.50 30.50 8 CLR None
2018-02-19 06:54 30 29 26 95 110° 3 - 30.50 30.50 6 BR CLR 6-hr Min Temp (7am): 28.9°F
6-hr Max Temp (7am): 33.1°F
2018-02-19 05:54 31 29 - 92 - Calm - 30.50 30.51 9 CLR None
2018-02-19 04:54 31 31 27 100 100° 3 - 30.49 30.50 8 CLR None

Support USWX by starting your Amazon purchase here.